<?xml version="1.0" encoding="UTF-8" standalone="no" ?>
<gpx xmlns="http://www.topografix.com/GPX/1/1" xmlns:xsi="http://www.w3.org/2001/XMLSchema-instance" xsi:schemaLocation="http://www.topografix.com/GPX/1/1 http://www.topografix.com/GPX/1/1/gpx.xsd" version="1.1" creator="VisuGPX - https://www.visugpx.com">
  <metadata>
    <name>GpsPruneTrack</name>
  </metadata>
  <trk>
    <name><![CDATA[GpsPruneTrack]]></name>
    <trkseg>
      <trkpt lat="48.03485" lon="7.01099">
        <ele>1274.03</ele>
        <time>2017-06-18T10:49:07Z</time>
      </trkpt>
      <trkpt lat="48.03488" lon="7.0112">
        <ele>1274.03</ele>
        <time>2017-06-18T10:49:22Z</time>
      </trkpt>
      <trkpt lat="48.03494" lon="7.01131">
        <ele>1274.03</ele>
        <time>2017-06-18T10:49:38Z</time>
      </trkpt>
      <trkpt lat="48.03491" lon="7.01137">
        <ele>1273.03</ele>
        <time>2017-06-18T10:49:54Z</time>
      </trkpt>
      <trkpt lat="48.03488" lon="7.01141">
        <ele>1274.03</ele>
        <time>2017-06-18T10:50:09Z</time>
      </trkpt>
      <trkpt lat="48.03488" lon="7.01136">
        <ele>1276.03</ele>
        <time>2017-06-18T10:50:24Z</time>
      </trkpt>
      <trkpt lat="48.03478" lon="7.01136">
        <ele>1270.03</ele>
        <time>2017-06-18T10:50:40Z</time>
      </trkpt>
      <trkpt lat="48.0347" lon="7.0114">
        <ele>1265.03</ele>
        <time>2017-06-18T10:50:56Z</time>
      </trkpt>
      <trkpt lat="48.03464" lon="7.01145">
        <ele>1262.03</ele>
        <time>2017-06-18T10:51:13Z</time>
      </trkpt>
      <trkpt lat="48.03451" lon="7.0114">
        <ele>1254.03</ele>
        <time>2017-06-18T10:51:28Z</time>
      </trkpt>
      <trkpt lat="48.03442" lon="7.01132">
        <ele>1253.03</ele>
        <time>2017-06-18T10:52:31Z</time>
      </trkpt>
      <trkpt lat="48.03425" lon="7.01125">
        <ele>1250.03</ele>
        <time>2017-06-18T10:52:46Z</time>
      </trkpt>
      <trkpt lat="48.03423" lon="7.01122">
        <ele>1257.03</ele>
        <time>2017-06-18T10:53:33Z</time>
      </trkpt>
      <trkpt lat="48.03417" lon="7.0112">
        <ele>1253.03</ele>
        <time>2017-06-18T10:54:18Z</time>
      </trkpt>
      <trkpt lat="48.03412" lon="7.0112">
        <ele>1247.03</ele>
        <time>2017-06-18T10:54:49Z</time>
      </trkpt>
      <trkpt lat="48.03404" lon="7.0112">
        <ele>1244.03</ele>
        <time>2017-06-18T10:55:05Z</time>
      </trkpt>
      <trkpt lat="48.03398" lon="7.01121">
        <ele>1243.03</ele>
        <time>2017-06-18T10:55:52Z</time>
      </trkpt>
      <trkpt lat="48.03393" lon="7.01139">
        <ele>1235.03</ele>
        <time>2017-06-18T10:56:39Z</time>
      </trkpt>
      <trkpt lat="48.03403" lon="7.01157">
        <ele>1230.03</ele>
        <time>2017-06-18T10:56:55Z</time>
      </trkpt>
      <trkpt lat="48.03411" lon="7.01173">
        <ele>1231.03</ele>
        <time>2017-06-18T10:57:11Z</time>
      </trkpt>
      <trkpt lat="48.03411" lon="7.01181">
        <ele>1232.03</ele>
        <time>2017-06-18T10:57:42Z</time>
      </trkpt>
      <trkpt lat="48.0341" lon="7.01192">
        <ele>1230.03</ele>
        <time>2017-06-18T10:57:58Z</time>
      </trkpt>
      <trkpt lat="48.0341" lon="7.01198">
        <ele>1229.03</ele>
        <time>2017-06-18T10:58:13Z</time>
      </trkpt>
      <trkpt lat="48.03418" lon="7.01205">
        <ele>1227.03</ele>
        <time>2017-06-18T10:58:28Z</time>
      </trkpt>
      <trkpt lat="48.03423" lon="7.01216">
        <ele>1226.03</ele>
        <time>2017-06-18T10:58:43Z</time>
      </trkpt>
      <trkpt lat="48.03434" lon="7.01228">
        <ele>1227.03</ele>
        <time>2017-06-18T10:58:58Z</time>
      </trkpt>
      <trkpt lat="48.03439" lon="7.01232">
        <ele>1226.03</ele>
        <time>2017-06-18T10:59:14Z</time>
      </trkpt>
      <trkpt lat="48.03441" lon="7.01238">
        <ele>1219.03</ele>
        <time>2017-06-18T10:59:29Z</time>
      </trkpt>
      <trkpt lat="48.03439" lon="7.01245">
        <ele>1214.03</ele>
        <time>2017-06-18T10:59:44Z</time>
      </trkpt>
      <trkpt lat="48.03435" lon="7.01259">
        <ele>1213.03</ele>
        <time>2017-06-18T11:00:00Z</time>
      </trkpt>
      <trkpt lat="48.03434" lon="7.01271">
        <ele>1211.03</ele>
        <time>2017-06-18T11:00:15Z</time>
      </trkpt>
      <trkpt lat="48.03427" lon="7.01282">
        <ele>1206.03</ele>
        <time>2017-06-18T11:00:30Z</time>
      </trkpt>
      <trkpt lat="48.03418" lon="7.01293">
        <ele>1205.03</ele>
        <time>2017-06-18T11:00:46Z</time>
      </trkpt>
      <trkpt lat="48.03421" lon="7.01312">
        <ele>1204.03</ele>
        <time>2017-06-18T11:01:02Z</time>
      </trkpt>
      <trkpt lat="48.03422" lon="7.01327">
        <ele>1199.03</ele>
        <time>2017-06-18T11:01:18Z</time>
      </trkpt>
      <trkpt lat="48.03414" lon="7.0133">
        <ele>1193.03</ele>
        <time>2017-06-18T11:46:51Z</time>
      </trkpt>
      <trkpt lat="48.03405" lon="7.01326">
        <ele>1191.03</ele>
        <time>2017-06-18T11:47:06Z</time>
      </trkpt>
      <trkpt lat="48.03403" lon="7.01323">
        <ele>1191.03</ele>
        <time>2017-06-18T11:47:21Z</time>
      </trkpt>
      <trkpt lat="48.03399" lon="7.01319">
        <ele>1192.03</ele>
        <time>2017-06-18T11:47:53Z</time>
      </trkpt>
      <trkpt lat="48.03397" lon="7.01328">
        <ele>1191.03</ele>
        <time>2017-06-18T11:50:43Z</time>
      </trkpt>
      <trkpt lat="48.03399" lon="7.01347">
        <ele>1187.03</ele>
        <time>2017-06-18T11:51:14Z</time>
      </trkpt>
      <trkpt lat="48.03408" lon="7.01361">
        <ele>1181.03</ele>
        <time>2017-06-18T11:51:30Z</time>
      </trkpt>
      <trkpt lat="48.03408" lon="7.01368">
        <ele>1168.03</ele>
        <time>2017-06-18T11:52:32Z</time>
      </trkpt>
      <trkpt lat="48.03402" lon="7.01375">
        <ele>1169.03</ele>
        <time>2017-06-18T11:52:48Z</time>
      </trkpt>
      <trkpt lat="48.03391" lon="7.0138">
        <ele>1168.03</ele>
        <time>2017-06-18T11:53:03Z</time>
      </trkpt>
      <trkpt lat="48.0339" lon="7.01381">
        <ele>1163.03</ele>
        <time>2017-06-18T11:53:19Z</time>
      </trkpt>
      <trkpt lat="48.03383" lon="7.01385">
        <ele>1160.03</ele>
        <time>2017-06-18T11:53:50Z</time>
      </trkpt>
      <trkpt lat="48.03373" lon="7.01442">
        <ele>1167.03</ele>
        <time>2017-06-18T11:54:52Z</time>
      </trkpt>
      <trkpt lat="48.03373" lon="7.01455">
        <ele>1160.03</ele>
        <time>2017-06-18T11:55:07Z</time>
      </trkpt>
      <trkpt lat="48.03371" lon="7.01478">
        <ele>1152.03</ele>
        <time>2017-06-18T11:55:23Z</time>
      </trkpt>
      <trkpt lat="48.03367" lon="7.01492">
        <ele>1150.03</ele>
        <time>2017-06-18T11:55:39Z</time>
      </trkpt>
      <trkpt lat="48.03369" lon="7.01506">
        <ele>1143.03</ele>
        <time>2017-06-18T11:55:55Z</time>
      </trkpt>
      <trkpt lat="48.03376" lon="7.01509">
        <ele>1138.03</ele>
        <time>2017-06-18T11:56:10Z</time>
      </trkpt>
      <trkpt lat="48.03378" lon="7.01518">
        <ele>1143.03</ele>
        <time>2017-06-18T11:56:26Z</time>
      </trkpt>
      <trkpt lat="48.03377" lon="7.01532">
        <ele>1144.03</ele>
        <time>2017-06-18T11:56:42Z</time>
      </trkpt>
      <trkpt lat="48.03381" lon="7.01546">
        <ele>1139.03</ele>
        <time>2017-06-18T11:56:57Z</time>
      </trkpt>
      <trkpt lat="48.03377" lon="7.01565">
        <ele>1142.03</ele>
        <time>2017-06-18T11:57:13Z</time>
      </trkpt>
      <trkpt lat="48.03371" lon="7.01588">
        <ele>1138.03</ele>
        <time>2017-06-18T11:57:29Z</time>
      </trkpt>
      <trkpt lat="48.03379" lon="7.01601">
        <ele>1140.03</ele>
        <time>2017-06-18T11:57:45Z</time>
      </trkpt>
      <trkpt lat="48.03388" lon="7.01594">
        <ele>1134.03</ele>
        <time>2017-06-18T11:58:01Z</time>
      </trkpt>
      <trkpt lat="48.03389" lon="7.01606">
        <ele>1132.03</ele>
        <time>2017-06-18T11:58:16Z</time>
      </trkpt>
      <trkpt lat="48.03382" lon="7.01617">
        <ele>1132.03</ele>
        <time>2017-06-18T11:58:31Z</time>
      </trkpt>
      <trkpt lat="48.03375" lon="7.01624">
        <ele>1130.03</ele>
        <time>2017-06-18T11:58:47Z</time>
      </trkpt>
      <trkpt lat="48.03368" lon="7.01631">
        <ele>1130.03</ele>
        <time>2017-06-18T11:59:03Z</time>
      </trkpt>
      <trkpt lat="48.03367" lon="7.01636">
        <ele>1130.03</ele>
        <time>2017-06-18T11:59:19Z</time>
      </trkpt>
      <trkpt lat="48.03362" lon="7.01642">
        <ele>1120.03</ele>
        <time>2017-06-18T11:59:34Z</time>
      </trkpt>
      <trkpt lat="48.03359" lon="7.01647">
        <ele>1119.03</ele>
        <time>2017-06-18T11:59:49Z</time>
      </trkpt>
      <trkpt lat="48.03347" lon="7.01653">
        <ele>1115.03</ele>
        <time>2017-06-18T12:00:05Z</time>
      </trkpt>
      <trkpt lat="48.03333" lon="7.0166">
        <ele>1115.03</ele>
        <time>2017-06-18T12:00:21Z</time>
      </trkpt>
      <trkpt lat="48.03322" lon="7.01672">
        <ele>1113.03</ele>
        <time>2017-06-18T12:00:37Z</time>
      </trkpt>
      <trkpt lat="48.03322" lon="7.01683">
        <ele>1111.03</ele>
        <time>2017-06-18T12:00:52Z</time>
      </trkpt>
      <trkpt lat="48.03311" lon="7.0169">
        <ele>1110.03</ele>
        <time>2017-06-18T12:01:07Z</time>
      </trkpt>
      <trkpt lat="48.03295" lon="7.01694">
        <ele>1107.03</ele>
        <time>2017-06-18T12:01:23Z</time>
      </trkpt>
      <trkpt lat="48.03288" lon="7.01708">
        <ele>1106.03</ele>
        <time>2017-06-18T12:01:38Z</time>
      </trkpt>
      <trkpt lat="48.03283" lon="7.01722">
        <ele>1098.03</ele>
        <time>2017-06-18T12:01:53Z</time>
      </trkpt>
      <trkpt lat="48.03279" lon="7.01737">
        <ele>1099.03</ele>
        <time>2017-06-18T12:02:09Z</time>
      </trkpt>
      <trkpt lat="48.03275" lon="7.01747">
        <ele>1093.03</ele>
        <time>2017-06-18T12:02:24Z</time>
      </trkpt>
      <trkpt lat="48.0327" lon="7.01761">
        <ele>1085.03</ele>
        <time>2017-06-18T12:02:40Z</time>
      </trkpt>
      <trkpt lat="48.03263" lon="7.01776">
        <ele>1077.03</ele>
        <time>2017-06-18T12:02:55Z</time>
      </trkpt>
      <trkpt lat="48.03263" lon="7.01801">
        <ele>1078.03</ele>
        <time>2017-06-18T12:03:11Z</time>
      </trkpt>
      <trkpt lat="48.03262" lon="7.0181">
        <ele>1071.03</ele>
        <time>2017-06-18T12:03:26Z</time>
      </trkpt>
      <trkpt lat="48.03255" lon="7.01807">
        <ele>1071.03</ele>
        <time>2017-06-18T12:03:41Z</time>
      </trkpt>
      <trkpt lat="48.03253" lon="7.01813">
        <ele>1068.03</ele>
        <time>2017-06-18T12:03:56Z</time>
      </trkpt>
      <trkpt lat="48.03247" lon="7.01817">
        <ele>1071.03</ele>
        <time>2017-06-18T12:04:11Z</time>
      </trkpt>
      <trkpt lat="48.03228" lon="7.01814">
        <ele>1065.03</ele>
        <time>2017-06-18T12:04:27Z</time>
      </trkpt>
      <trkpt lat="48.03224" lon="7.01819">
        <ele>1062.03</ele>
        <time>2017-06-18T12:04:42Z</time>
      </trkpt>
      <trkpt lat="48.03225" lon="7.01824">
        <ele>1055.03</ele>
        <time>2017-06-18T12:04:58Z</time>
      </trkpt>
      <trkpt lat="48.03227" lon="7.01829">
        <ele>1056.03</ele>
        <time>2017-06-18T12:05:13Z</time>
      </trkpt>
      <trkpt lat="48.03232" lon="7.0183">
        <ele>1054.03</ele>
        <time>2017-06-18T12:05:29Z</time>
      </trkpt>
      <trkpt lat="48.03239" lon="7.01837">
        <ele>1056.03</ele>
        <time>2017-06-18T12:05:45Z</time>
      </trkpt>
      <trkpt lat="48.03244" lon="7.01843">
        <ele>1052.03</ele>
        <time>2017-06-18T12:06:01Z</time>
      </trkpt>
      <trkpt lat="48.03242" lon="7.01857">
        <ele>1054.03</ele>
        <time>2017-06-18T12:06:17Z</time>
      </trkpt>
      <trkpt lat="48.03235" lon="7.01867">
        <ele>1041.03</ele>
        <time>2017-06-18T12:06:33Z</time>
      </trkpt>
      <trkpt lat="48.03214" lon="7.01876">
        <ele>1044.03</ele>
        <time>2017-06-18T12:06:49Z</time>
      </trkpt>
      <trkpt lat="48.0321" lon="7.01883">
        <ele>1040.03</ele>
        <time>2017-06-18T12:07:04Z</time>
      </trkpt>
      <trkpt lat="48.03205" lon="7.01892">
        <ele>1040.03</ele>
        <time>2017-06-18T12:07:20Z</time>
      </trkpt>
      <trkpt lat="48.03201" lon="7.01905">
        <ele>1035.03</ele>
        <time>2017-06-18T12:07:36Z</time>
      </trkpt>
      <trkpt lat="48.0319" lon="7.01917">
        <ele>1035.03</ele>
        <time>2017-06-18T12:07:51Z</time>
      </trkpt>
      <trkpt lat="48.0318" lon="7.01927">
        <ele>1039.03</ele>
        <time>2017-06-18T12:08:07Z</time>
      </trkpt>
      <trkpt lat="48.03183" lon="7.01939">
        <ele>1039.03</ele>
        <time>2017-06-18T12:08:23Z</time>
      </trkpt>
      <trkpt lat="48.03171" lon="7.01962">
        <ele>1031.03</ele>
        <time>2017-06-18T12:08:39Z</time>
      </trkpt>
      <trkpt lat="48.03167" lon="7.01988">
        <ele>1030.03</ele>
        <time>2017-06-18T12:08:54Z</time>
      </trkpt>
      <trkpt lat="48.03152" lon="7.02007">
        <ele>1028.03</ele>
        <time>2017-06-18T12:09:10Z</time>
      </trkpt>
      <trkpt lat="48.03141" lon="7.02018">
        <ele>1034.03</ele>
        <time>2017-06-18T12:09:26Z</time>
      </trkpt>
      <trkpt lat="48.03122" lon="7.02024">
        <ele>1038.03</ele>
        <time>2017-06-18T12:09:41Z</time>
      </trkpt>
      <trkpt lat="48.03114" lon="7.02031">
        <ele>1041.03</ele>
        <time>2017-06-18T12:09:56Z</time>
      </trkpt>
      <trkpt lat="48.03104" lon="7.02039">
        <ele>1045.03</ele>
        <time>2017-06-18T12:10:12Z</time>
      </trkpt>
      <trkpt lat="48.03098" lon="7.02041">
        <ele>1041.03</ele>
        <time>2017-06-18T12:10:28Z</time>
      </trkpt>
      <trkpt lat="48.03081" lon="7.02048">
        <ele>1035.03</ele>
        <time>2017-06-18T12:10:44Z</time>
      </trkpt>
      <trkpt lat="48.03069" lon="7.02058">
        <ele>1026.03</ele>
        <time>2017-06-18T12:11:00Z</time>
      </trkpt>
      <trkpt lat="48.03061" lon="7.0207">
        <ele>1031.03</ele>
        <time>2017-06-18T12:11:16Z</time>
      </trkpt>
      <trkpt lat="48.03043" lon="7.02082">
        <ele>1031.03</ele>
        <time>2017-06-18T12:11:32Z</time>
      </trkpt>
      <trkpt lat="48.03025" lon="7.02084">
        <ele>1030.03</ele>
        <time>2017-06-18T12:11:47Z</time>
      </trkpt>
      <trkpt lat="48.03021" lon="7.02088">
        <ele>1031.03</ele>
        <time>2017-06-18T12:12:35Z</time>
      </trkpt>
      <trkpt lat="48.03013" lon="7.0209">
        <ele>1022.03</ele>
        <time>2017-06-18T12:12:50Z</time>
      </trkpt>
      <trkpt lat="48.03002" lon="7.02094">
        <ele>1023.03</ele>
        <time>2017-06-18T12:13:05Z</time>
      </trkpt>
      <trkpt lat="48.03" lon="7.02101">
        <ele>1025.03</ele>
        <time>2017-06-18T12:13:22Z</time>
      </trkpt>
      <trkpt lat="48.03013" lon="7.0211">
        <ele>1027.03</ele>
        <time>2017-06-18T12:13:37Z</time>
      </trkpt>
      <trkpt lat="48.0302" lon="7.02115">
        <ele>1017.03</ele>
        <time>2017-06-18T12:13:53Z</time>
      </trkpt>
      <trkpt lat="48.0301" lon="7.02121">
        <ele>1014.03</ele>
        <time>2017-06-18T12:14:08Z</time>
      </trkpt>
      <trkpt lat="48.03006" lon="7.02137">
        <ele>1009.03</ele>
        <time>2017-06-18T12:14:24Z</time>
      </trkpt>
      <trkpt lat="48.02995" lon="7.02151">
        <ele>1010.03</ele>
        <time>2017-06-18T12:14:40Z</time>
      </trkpt>
      <trkpt lat="48.02988" lon="7.02159">
        <ele>1009.03</ele>
        <time>2017-06-18T12:14:55Z</time>
      </trkpt>
      <trkpt lat="48.02981" lon="7.02165">
        <ele>1002.03</ele>
        <time>2017-06-18T12:15:11Z</time>
      </trkpt>
      <trkpt lat="48.02975" lon="7.02167">
        <ele>1001.03</ele>
        <time>2017-06-18T12:15:27Z</time>
      </trkpt>
      <trkpt lat="48.02957" lon="7.02171">
        <ele>1003.03</ele>
        <time>2017-06-18T12:15:43Z</time>
      </trkpt>
      <trkpt lat="48.02949" lon="7.02176">
        <ele>992.03</ele>
        <time>2017-06-18T12:15:58Z</time>
      </trkpt>
      <trkpt lat="48.02934" lon="7.02178">
        <ele>989.03</ele>
        <time>2017-06-18T12:16:14Z</time>
      </trkpt>
      <trkpt lat="48.02926" lon="7.02189">
        <ele>991.03</ele>
        <time>2017-06-18T12:16:29Z</time>
      </trkpt>
      <trkpt lat="48.02916" lon="7.02202">
        <ele>989.03</ele>
        <time>2017-06-18T12:16:45Z</time>
      </trkpt>
      <trkpt lat="48.02908" lon="7.02214">
        <ele>988.03</ele>
        <time>2017-06-18T12:17:01Z</time>
      </trkpt>
      <trkpt lat="48.02892" lon="7.02214">
        <ele>986.03</ele>
        <time>2017-06-18T12:17:17Z</time>
      </trkpt>
      <trkpt lat="48.02878" lon="7.02216">
        <ele>986.03</ele>
        <time>2017-06-18T12:17:32Z</time>
      </trkpt>
      <trkpt lat="48.02872" lon="7.02224">
        <ele>982.03</ele>
        <time>2017-06-18T12:17:47Z</time>
      </trkpt>
      <trkpt lat="48.02863" lon="7.02228">
        <ele>979.03</ele>
        <time>2017-06-18T12:18:03Z</time>
      </trkpt>
      <trkpt lat="48.02848" lon="7.02235">
        <ele>973.03</ele>
        <time>2017-06-18T12:18:18Z</time>
      </trkpt>
      <trkpt lat="48.02835" lon="7.02245">
        <ele>965.03</ele>
        <time>2017-06-18T12:18:34Z</time>
      </trkpt>
      <trkpt lat="48.02832" lon="7.02251">
        <ele>965.03</ele>
        <time>2017-06-18T12:18:50Z</time>
      </trkpt>
      <trkpt lat="48.02816" lon="7.02273">
        <ele>959.03</ele>
        <time>2017-06-18T12:19:06Z</time>
      </trkpt>
      <trkpt lat="48.02803" lon="7.02282">
        <ele>964.03</ele>
        <time>2017-06-18T12:19:22Z</time>
      </trkpt>
      <trkpt lat="48.02791" lon="7.02288">
        <ele>960.03</ele>
        <time>2017-06-18T12:19:38Z</time>
      </trkpt>
      <trkpt lat="48.02774" lon="7.02294">
        <ele>963.03</ele>
        <time>2017-06-18T12:19:53Z</time>
      </trkpt>
      <trkpt lat="48.02765" lon="7.02302">
        <ele>966.03</ele>
        <time>2017-06-18T12:20:08Z</time>
      </trkpt>
      <trkpt lat="48.02759" lon="7.0231">
        <ele>968.03</ele>
        <time>2017-06-18T12:20:24Z</time>
      </trkpt>
      <trkpt lat="48.02752" lon="7.02318">
        <ele>971.03</ele>
        <time>2017-06-18T12:20:39Z</time>
      </trkpt>
      <trkpt lat="48.02748" lon="7.02327">
        <ele>971.03</ele>
        <time>2017-06-18T12:20:55Z</time>
      </trkpt>
      <trkpt lat="48.02737" lon="7.0234">
        <ele>968.03</ele>
        <time>2017-06-18T12:21:10Z</time>
      </trkpt>
      <trkpt lat="48.02724" lon="7.02356">
        <ele>972.03</ele>
        <time>2017-06-18T12:21:26Z</time>
      </trkpt>
      <trkpt lat="48.02718" lon="7.02363">
        <ele>973.03</ele>
        <time>2017-06-18T12:21:41Z</time>
      </trkpt>
      <trkpt lat="48.02707" lon="7.02384">
        <ele>978.03</ele>
        <time>2017-06-18T12:21:57Z</time>
      </trkpt>
      <trkpt lat="48.02696" lon="7.02398">
        <ele>983.03</ele>
        <time>2017-06-18T12:22:12Z</time>
      </trkpt>
      <trkpt lat="48.0268" lon="7.02402">
        <ele>983.03</ele>
        <time>2017-06-18T12:22:27Z</time>
      </trkpt>
      <trkpt lat="48.02665" lon="7.02394">
        <ele>982.03</ele>
        <time>2017-06-18T12:22:43Z</time>
      </trkpt>
      <trkpt lat="48.02653" lon="7.0239">
        <ele>983.03</ele>
        <time>2017-06-18T12:22:58Z</time>
      </trkpt>
      <trkpt lat="48.02641" lon="7.02381">
        <ele>986.03</ele>
        <time>2017-06-18T12:23:13Z</time>
      </trkpt>
      <trkpt lat="48.02631" lon="7.02375">
        <ele>983.03</ele>
        <time>2017-06-18T12:23:28Z</time>
      </trkpt>
      <trkpt lat="48.02618" lon="7.02364">
        <ele>989.03</ele>
        <time>2017-06-18T12:23:44Z</time>
      </trkpt>
      <trkpt lat="48.02627" lon="7.02361">
        <ele>991.03</ele>
        <time>2017-06-18T12:23:59Z</time>
      </trkpt>
      <trkpt lat="48.02642" lon="7.02363">
        <ele>993.03</ele>
        <time>2017-06-18T12:24:15Z</time>
      </trkpt>
      <trkpt lat="48.02653" lon="7.02362">
        <ele>998.03</ele>
        <time>2017-06-18T12:24:30Z</time>
      </trkpt>
      <trkpt lat="48.02667" lon="7.02358">
        <ele>998.03</ele>
        <time>2017-06-18T12:24:46Z</time>
      </trkpt>
      <trkpt lat="48.02671" lon="7.02354">
        <ele>998.03</ele>
        <time>2017-06-18T12:25:01Z</time>
      </trkpt>
      <trkpt lat="48.02683" lon="7.02346">
        <ele>1001.03</ele>
        <time>2017-06-18T12:25:16Z</time>
      </trkpt>
      <trkpt lat="48.02683" lon="7.02331">
        <ele>998.03</ele>
        <time>2017-06-18T12:25:32Z</time>
      </trkpt>
      <trkpt lat="48.02699" lon="7.02303">
        <ele>999.03</ele>
        <time>2017-06-18T12:25:47Z</time>
      </trkpt>
      <trkpt lat="48.02704" lon="7.02297">
        <ele>1006.03</ele>
        <time>2017-06-18T12:26:02Z</time>
      </trkpt>
      <trkpt lat="48.0271" lon="7.02289">
        <ele>1010.03</ele>
        <time>2017-06-18T12:26:17Z</time>
      </trkpt>
      <trkpt lat="48.02714" lon="7.02264">
        <ele>1012.03</ele>
        <time>2017-06-18T12:26:33Z</time>
      </trkpt>
      <trkpt lat="48.02713" lon="7.02247">
        <ele>1008.03</ele>
        <time>2017-06-18T12:26:48Z</time>
      </trkpt>
      <trkpt lat="48.02717" lon="7.02242">
        <ele>1010.03</ele>
        <time>2017-06-18T12:27:03Z</time>
      </trkpt>
      <trkpt lat="48.02711" lon="7.02233">
        <ele>1013.03</ele>
        <time>2017-06-18T12:27:18Z</time>
      </trkpt>
      <trkpt lat="48.02694" lon="7.02238">
        <ele>1018.03</ele>
        <time>2017-06-18T12:27:34Z</time>
      </trkpt>
      <trkpt lat="48.02673" lon="7.02246">
        <ele>1018.03</ele>
        <time>2017-06-18T12:28:05Z</time>
      </trkpt>
      <trkpt lat="48.0266" lon="7.02255">
        <ele>1024.03</ele>
        <time>2017-06-18T12:28:21Z</time>
      </trkpt>
      <trkpt lat="48.02648" lon="7.02273">
        <ele>1026.03</ele>
        <time>2017-06-18T12:28:37Z</time>
      </trkpt>
      <trkpt lat="48.02656" lon="7.0224">
        <ele>1020.03</ele>
        <time>2017-06-18T12:34:48Z</time>
      </trkpt>
      <trkpt lat="48.02654" lon="7.02224">
        <ele>1030.03</ele>
        <time>2017-06-18T12:35:03Z</time>
      </trkpt>
      <trkpt lat="48.0265" lon="7.02215">
        <ele>1030.03</ele>
        <time>2017-06-18T12:35:18Z</time>
      </trkpt>
      <trkpt lat="48.02636" lon="7.02202">
        <ele>1029.03</ele>
        <time>2017-06-18T12:35:33Z</time>
      </trkpt>
      <trkpt lat="48.02623" lon="7.02197">
        <ele>1026.03</ele>
        <time>2017-06-18T12:35:49Z</time>
      </trkpt>
      <trkpt lat="48.02612" lon="7.02189">
        <ele>1031.03</ele>
        <time>2017-06-18T12:36:05Z</time>
      </trkpt>
      <trkpt lat="48.02605" lon="7.02178">
        <ele>1031.03</ele>
        <time>2017-06-18T12:36:20Z</time>
      </trkpt>
      <trkpt lat="48.02601" lon="7.02163">
        <ele>1024.03</ele>
        <time>2017-06-18T12:36:36Z</time>
      </trkpt>
      <trkpt lat="48.026" lon="7.02152">
        <ele>1027.03</ele>
        <time>2017-06-18T12:36:52Z</time>
      </trkpt>
      <trkpt lat="48.02599" lon="7.02146">
        <ele>1022.03</ele>
        <time>2017-06-18T12:37:07Z</time>
      </trkpt>
      <trkpt lat="48.02594" lon="7.02105">
        <ele>1025.03</ele>
        <time>2017-06-18T12:37:39Z</time>
      </trkpt>
      <trkpt lat="48.02597" lon="7.02061">
        <ele>1025.03</ele>
        <time>2017-06-18T12:38:10Z</time>
      </trkpt>
      <trkpt lat="48.02619" lon="7.02005">
        <ele>1019.03</ele>
        <time>2017-06-18T12:39:14Z</time>
      </trkpt>
      <trkpt lat="48.02619" lon="7.01994">
        <ele>1030.03</ele>
        <time>2017-06-18T12:39:29Z</time>
      </trkpt>
      <trkpt lat="48.02625" lon="7.01984">
        <ele>1036.03</ele>
        <time>2017-06-18T12:39:45Z</time>
      </trkpt>
      <trkpt lat="48.02631" lon="7.01972">
        <ele>1039.03</ele>
        <time>2017-06-18T12:40:00Z</time>
      </trkpt>
      <trkpt lat="48.02639" lon="7.01963">
        <ele>1042.03</ele>
        <time>2017-06-18T12:40:16Z</time>
      </trkpt>
      <trkpt lat="48.02639" lon="7.0196">
        <ele>1042.03</ele>
        <time>2017-06-18T12:40:32Z</time>
      </trkpt>
      <trkpt lat="48.02641" lon="7.01957">
        <ele>1041.03</ele>
        <time>2017-06-18T12:40:47Z</time>
      </trkpt>
      <trkpt lat="48.02646" lon="7.0194">
        <ele>1048.03</ele>
        <time>2017-06-18T12:41:49Z</time>
      </trkpt>
      <trkpt lat="48.02652" lon="7.01948">
        <ele>1050.03</ele>
        <time>2017-06-18T12:42:20Z</time>
      </trkpt>
      <trkpt lat="48.02657" lon="7.01941">
        <ele>1049.03</ele>
        <time>2017-06-18T12:42:35Z</time>
      </trkpt>
      <trkpt lat="48.02675" lon="7.01929">
        <ele>1042.03</ele>
        <time>2017-06-18T12:43:29Z</time>
      </trkpt>
      <trkpt lat="48.02676" lon="7.01923">
        <ele>1044.03</ele>
        <time>2017-06-18T12:43:44Z</time>
      </trkpt>
      <trkpt lat="48.02675" lon="7.01916">
        <ele>1047.03</ele>
        <time>2017-06-18T12:43:59Z</time>
      </trkpt>
      <trkpt lat="48.02675" lon="7.01906">
        <ele>1045.03</ele>
        <time>2017-06-18T12:44:14Z</time>
      </trkpt>
      <trkpt lat="48.02677" lon="7.01898">
        <ele>1043.03</ele>
        <time>2017-06-18T12:46:04Z</time>
      </trkpt>
      <trkpt lat="48.02679" lon="7.01896">
        <ele>1041.03</ele>
        <time>2017-06-18T12:46:20Z</time>
      </trkpt>
      <trkpt lat="48.02679" lon="7.01892">
        <ele>1039.03</ele>
        <time>2017-06-18T12:46:35Z</time>
      </trkpt>
      <trkpt lat="48.02688" lon="7.01877">
        <ele>1046.03</ele>
        <time>2017-06-18T12:46:51Z</time>
      </trkpt>
      <trkpt lat="48.02691" lon="7.01868">
        <ele>1046.03</ele>
        <time>2017-06-18T12:47:06Z</time>
      </trkpt>
      <trkpt lat="48.02692" lon="7.0186">
        <ele>1040.03</ele>
        <time>2017-06-18T12:47:22Z</time>
      </trkpt>
      <trkpt lat="48.02694" lon="7.01856">
        <ele>1034.03</ele>
        <time>2017-06-18T12:48:37Z</time>
      </trkpt>
      <trkpt lat="48.02694" lon="7.01849">
        <ele>1035.03</ele>
        <time>2017-06-18T12:48:53Z</time>
      </trkpt>
      <trkpt lat="48.02696" lon="7.01822">
        <ele>1038.03</ele>
        <time>2017-06-18T12:49:24Z</time>
      </trkpt>
      <trkpt lat="48.02697" lon="7.01812">
        <ele>1036.03</ele>
        <time>2017-06-18T12:49:39Z</time>
      </trkpt>
      <trkpt lat="48.02695" lon="7.01805">
        <ele>1030.03</ele>
        <time>2017-06-18T12:49:55Z</time>
      </trkpt>
      <trkpt lat="48.02693" lon="7.01797">
        <ele>1028.03</ele>
        <time>2017-06-18T12:50:10Z</time>
      </trkpt>
      <trkpt lat="48.02696" lon="7.01787">
        <ele>1027.03</ele>
        <time>2017-06-18T12:50:25Z</time>
      </trkpt>
      <trkpt lat="48.02697" lon="7.01771">
        <ele>1026.03</ele>
        <time>2017-06-18T12:50:41Z</time>
      </trkpt>
      <trkpt lat="48.02699" lon="7.0176">
        <ele>1030.03</ele>
        <time>2017-06-18T12:50:56Z</time>
      </trkpt>
      <trkpt lat="48.027" lon="7.01751">
        <ele>1033.03</ele>
        <time>2017-06-18T12:51:11Z</time>
      </trkpt>
      <trkpt lat="48.02702" lon="7.01735">
        <ele>1035.03</ele>
        <time>2017-06-18T12:51:27Z</time>
      </trkpt>
      <trkpt lat="48.02706" lon="7.01734">
        <ele>1033.03</ele>
        <time>2017-06-18T12:51:42Z</time>
      </trkpt>
      <trkpt lat="48.02712" lon="7.01725">
        <ele>1030.03</ele>
        <time>2017-06-18T12:51:57Z</time>
      </trkpt>
      <trkpt lat="48.0271" lon="7.01723">
        <ele>1033.03</ele>
        <time>2017-06-18T12:52:13Z</time>
      </trkpt>
      <trkpt lat="48.02712" lon="7.01716">
        <ele>1034.03</ele>
        <time>2017-06-18T12:52:29Z</time>
      </trkpt>
      <trkpt lat="48.02713" lon="7.01712">
        <ele>1032.03</ele>
        <time>2017-06-18T12:52:44Z</time>
      </trkpt>
      <trkpt lat="48.02716" lon="7.01711">
        <ele>1028.03</ele>
        <time>2017-06-18T12:53:13Z</time>
      </trkpt>
      <trkpt lat="48.02717" lon="7.01707">
        <ele>1026.03</ele>
        <time>2017-06-18T12:53:28Z</time>
      </trkpt>
      <trkpt lat="48.02721" lon="7.01693">
        <ele>1030.03</ele>
        <time>2017-06-18T12:53:43Z</time>
      </trkpt>
      <trkpt lat="48.02724" lon="7.01685">
        <ele>1029.03</ele>
        <time>2017-06-18T12:53:58Z</time>
      </trkpt>
      <trkpt lat="48.02726" lon="7.01677">
        <ele>1033.03</ele>
        <time>2017-06-18T12:54:14Z</time>
      </trkpt>
      <trkpt lat="48.02728" lon="7.0167">
        <ele>1031.03</ele>
        <time>2017-06-18T12:54:30Z</time>
      </trkpt>
      <trkpt lat="48.02733" lon="7.01659">
        <ele>1033.03</ele>
        <time>2017-06-18T12:54:45Z</time>
      </trkpt>
      <trkpt lat="48.02735" lon="7.01648">
        <ele>1033.03</ele>
        <time>2017-06-18T12:55:01Z</time>
      </trkpt>
      <trkpt lat="48.02743" lon="7.01635">
        <ele>1041.03</ele>
        <time>2017-06-18T12:55:17Z</time>
      </trkpt>
      <trkpt lat="48.02744" lon="7.01627">
        <ele>1039.03</ele>
        <time>2017-06-18T12:55:32Z</time>
      </trkpt>
      <trkpt lat="48.02744" lon="7.01628">
        <ele>1036.03</ele>
        <time>2017-06-18T12:55:47Z</time>
      </trkpt>
      <trkpt lat="48.02741" lon="7.01614">
        <ele>1032.03</ele>
        <time>2017-06-18T12:56:03Z</time>
      </trkpt>
      <trkpt lat="48.02719" lon="7.01591">
        <ele>1035.03</ele>
        <time>2017-06-18T12:59:10Z</time>
      </trkpt>
      <trkpt lat="48.02716" lon="7.01591">
        <ele>1038.03</ele>
        <time>2017-06-18T12:59:26Z</time>
      </trkpt>
      <trkpt lat="48.02709" lon="7.01585">
        <ele>1038.03</ele>
        <time>2017-06-18T12:59:42Z</time>
      </trkpt>
      <trkpt lat="48.02702" lon="7.01588">
        <ele>1038.03</ele>
        <time>2017-06-18T12:59:57Z</time>
      </trkpt>
      <trkpt lat="48.02694" lon="7.01583">
        <ele>1036.03</ele>
        <time>2017-06-18T13:00:13Z</time>
      </trkpt>
      <trkpt lat="48.02688" lon="7.01578">
        <ele>1036.03</ele>
        <time>2017-06-18T13:00:29Z</time>
      </trkpt>
      <trkpt lat="48.02674" lon="7.01581">
        <ele>1041.03</ele>
        <time>2017-06-18T13:00:44Z</time>
      </trkpt>
      <trkpt lat="48.02654" lon="7.01577">
        <ele>1042.03</ele>
        <time>2017-06-18T13:00:59Z</time>
      </trkpt>
      <trkpt lat="48.02643" lon="7.0157">
        <ele>1045.03</ele>
        <time>2017-06-18T13:01:14Z</time>
      </trkpt>
      <trkpt lat="48.02635" lon="7.01566">
        <ele>1049.03</ele>
        <time>2017-06-18T13:01:30Z</time>
      </trkpt>
      <trkpt lat="48.02623" lon="7.0156">
        <ele>1051.03</ele>
        <time>2017-06-18T13:01:45Z</time>
      </trkpt>
      <trkpt lat="48.02603" lon="7.01551">
        <ele>1042.03</ele>
        <time>2017-06-18T13:02:01Z</time>
      </trkpt>
      <trkpt lat="48.02587" lon="7.0154">
        <ele>1047.03</ele>
        <time>2017-06-18T13:02:17Z</time>
      </trkpt>
      <trkpt lat="48.02572" lon="7.01533">
        <ele>1046.03</ele>
        <time>2017-06-18T13:02:33Z</time>
      </trkpt>
      <trkpt lat="48.02566" lon="7.01529">
        <ele>1048.03</ele>
        <time>2017-06-18T13:02:48Z</time>
      </trkpt>
      <trkpt lat="48.02552" lon="7.01534">
        <ele>1049.03</ele>
        <time>2017-06-18T13:03:04Z</time>
      </trkpt>
      <trkpt lat="48.02546" lon="7.01538">
        <ele>1041.03</ele>
        <time>2017-06-18T13:03:51Z</time>
      </trkpt>
      <trkpt lat="48.02541" lon="7.01537">
        <ele>1046.03</ele>
        <time>2017-06-18T13:04:06Z</time>
      </trkpt>
      <trkpt lat="48.02542" lon="7.01531">
        <ele>1040.03</ele>
        <time>2017-06-18T13:04:21Z</time>
      </trkpt>
      <trkpt lat="48.02537" lon="7.01515">
        <ele>1043.03</ele>
        <time>2017-06-18T13:04:36Z</time>
      </trkpt>
      <trkpt lat="48.02529" lon="7.01492">
        <ele>1038.03</ele>
        <time>2017-06-18T13:04:52Z</time>
      </trkpt>
      <trkpt lat="48.02526" lon="7.01485">
        <ele>1041.03</ele>
        <time>2017-06-18T13:05:08Z</time>
      </trkpt>
      <trkpt lat="48.02516" lon="7.0148">
        <ele>1043.03</ele>
        <time>2017-06-18T13:05:23Z</time>
      </trkpt>
      <trkpt lat="48.02501" lon="7.01481">
        <ele>1037.03</ele>
        <time>2017-06-18T13:05:39Z</time>
      </trkpt>
      <trkpt lat="48.02497" lon="7.01474">
        <ele>1031.03</ele>
        <time>2017-06-18T13:05:54Z</time>
      </trkpt>
      <trkpt lat="48.02485" lon="7.01467">
        <ele>1028.03</ele>
        <time>2017-06-18T13:06:10Z</time>
      </trkpt>
      <trkpt lat="48.02467" lon="7.01469">
        <ele>1027.03</ele>
        <time>2017-06-18T13:06:25Z</time>
      </trkpt>
      <trkpt lat="48.02453" lon="7.01468">
        <ele>1041.03</ele>
        <time>2017-06-18T13:06:41Z</time>
      </trkpt>
      <trkpt lat="48.02439" lon="7.01471">
        <ele>1039.03</ele>
        <time>2017-06-18T13:06:57Z</time>
      </trkpt>
      <trkpt lat="48.02412" lon="7.01482">
        <ele>1042.03</ele>
        <time>2017-06-18T13:07:34Z</time>
      </trkpt>
      <trkpt lat="48.02408" lon="7.01502">
        <ele>1032.03</ele>
        <time>2017-06-18T13:07:49Z</time>
      </trkpt>
      <trkpt lat="48.02398" lon="7.01511">
        <ele>1034.03</ele>
        <time>2017-06-18T13:08:20Z</time>
      </trkpt>
      <trkpt lat="48.02391" lon="7.01516">
        <ele>1030.03</ele>
        <time>2017-06-18T13:08:36Z</time>
      </trkpt>
      <trkpt lat="48.02379" lon="7.01525">
        <ele>1030.03</ele>
        <time>2017-06-18T13:08:51Z</time>
      </trkpt>
      <trkpt lat="48.02377" lon="7.01528">
        <ele>1030.03</ele>
        <time>2017-06-18T13:09:07Z</time>
      </trkpt>
      <trkpt lat="48.02376" lon="7.01528">
        <ele>1035.03</ele>
        <time>2017-06-18T13:09:22Z</time>
      </trkpt>
      <trkpt lat="48.02372" lon="7.01529">
        <ele>1029.03</ele>
        <time>2017-06-18T13:09:38Z</time>
      </trkpt>
      <trkpt lat="48.02364" lon="7.01537">
        <ele>1024.03</ele>
        <time>2017-06-18T13:09:53Z</time>
      </trkpt>
      <trkpt lat="48.02357" lon="7.01548">
        <ele>1029.03</ele>
        <time>2017-06-18T13:10:08Z</time>
      </trkpt>
      <trkpt lat="48.02354" lon="7.0156">
        <ele>1032.03</ele>
        <time>2017-06-18T13:10:24Z</time>
      </trkpt>
      <trkpt lat="48.02355" lon="7.01564">
        <ele>1037.03</ele>
        <time>2017-06-18T13:10:39Z</time>
      </trkpt>
      <trkpt lat="48.0235" lon="7.01581">
        <ele>1033.03</ele>
        <time>2017-06-18T13:10:55Z</time>
      </trkpt>
      <trkpt lat="48.02342" lon="7.01593">
        <ele>1032.03</ele>
        <time>2017-06-18T13:11:10Z</time>
      </trkpt>
      <trkpt lat="48.02339" lon="7.01596">
        <ele>1029.03</ele>
        <time>2017-06-18T13:11:26Z</time>
      </trkpt>
      <trkpt lat="48.02337" lon="7.01597">
        <ele>1027.03</ele>
        <time>2017-06-18T13:11:57Z</time>
      </trkpt>
      <trkpt lat="48.02314" lon="7.01605">
        <ele>1025.03</ele>
        <time>2017-06-18T13:12:37Z</time>
      </trkpt>
      <trkpt lat="48.02309" lon="7.01612">
        <ele>1014.03</ele>
        <time>2017-06-18T13:13:40Z</time>
      </trkpt>
      <trkpt lat="48.02304" lon="7.01617">
        <ele>1022.03</ele>
        <time>2017-06-18T13:13:55Z</time>
      </trkpt>
      <trkpt lat="48.023" lon="7.01622">
        <ele>1027.03</ele>
        <time>2017-06-18T13:14:10Z</time>
      </trkpt>
      <trkpt lat="48.02296" lon="7.01622">
        <ele>1028.03</ele>
        <time>2017-06-18T13:14:41Z</time>
      </trkpt>
      <trkpt lat="48.02291" lon="7.01622">
        <ele>1026.03</ele>
        <time>2017-06-18T13:14:57Z</time>
      </trkpt>
      <trkpt lat="48.02282" lon="7.01629">
        <ele>1033.03</ele>
        <time>2017-06-18T13:15:12Z</time>
      </trkpt>
      <trkpt lat="48.0227" lon="7.01619">
        <ele>1033.03</ele>
        <time>2017-06-18T13:15:28Z</time>
      </trkpt>
      <trkpt lat="48.02264" lon="7.0162">
        <ele>1031.03</ele>
        <time>2017-06-18T13:15:44Z</time>
      </trkpt>
      <trkpt lat="48.02254" lon="7.01624">
        <ele>1030.03</ele>
        <time>2017-06-18T13:16:00Z</time>
      </trkpt>
      <trkpt lat="48.02241" lon="7.01618">
        <ele>1031.03</ele>
        <time>2017-06-18T13:16:16Z</time>
      </trkpt>
      <trkpt lat="48.02234" lon="7.01619">
        <ele>1027.03</ele>
        <time>2017-06-18T13:16:32Z</time>
      </trkpt>
      <trkpt lat="48.0223" lon="7.01617">
        <ele>1024.03</ele>
        <time>2017-06-18T13:16:47Z</time>
      </trkpt>
      <trkpt lat="48.0219" lon="7.01618">
        <ele>1031.03</ele>
        <time>2017-06-18T13:17:49Z</time>
      </trkpt>
      <trkpt lat="48.0219" lon="7.0162">
        <ele>1032.03</ele>
        <time>2017-06-18T13:18:04Z</time>
      </trkpt>
      <trkpt lat="48.02182" lon="7.01614">
        <ele>1033.03</ele>
        <time>2017-06-18T13:18:20Z</time>
      </trkpt>
      <trkpt lat="48.02176" lon="7.01616">
        <ele>1032.03</ele>
        <time>2017-06-18T13:18:35Z</time>
      </trkpt>
      <trkpt lat="48.02169" lon="7.01626">
        <ele>1035.03</ele>
        <time>2017-06-18T13:18:51Z</time>
      </trkpt>
      <trkpt lat="48.02166" lon="7.01626">
        <ele>1028.03</ele>
        <time>2017-06-18T13:19:06Z</time>
      </trkpt>
      <trkpt lat="48.02163" lon="7.01647">
        <ele>1032.03</ele>
        <time>2017-06-18T13:19:22Z</time>
      </trkpt>
      <trkpt lat="48.02161" lon="7.01652">
        <ele>1026.03</ele>
        <time>2017-06-18T13:19:37Z</time>
      </trkpt>
      <trkpt lat="48.0216" lon="7.01659">
        <ele>1028.03</ele>
        <time>2017-06-18T13:19:52Z</time>
      </trkpt>
      <trkpt lat="48.02158" lon="7.01662">
        <ele>1021.03</ele>
        <time>2017-06-18T13:20:08Z</time>
      </trkpt>
      <trkpt lat="48.02159" lon="7.0167">
        <ele>1030.03</ele>
        <time>2017-06-18T13:20:23Z</time>
      </trkpt>
      <trkpt lat="48.02151" lon="7.01676">
        <ele>1032.03</ele>
        <time>2017-06-18T13:20:39Z</time>
      </trkpt>
      <trkpt lat="48.02152" lon="7.01677">
        <ele>1028.03</ele>
        <time>2017-06-18T13:20:54Z</time>
      </trkpt>
      <trkpt lat="48.02146" lon="7.01684">
        <ele>1022.03</ele>
        <time>2017-06-18T13:21:10Z</time>
      </trkpt>
      <trkpt lat="48.02141" lon="7.01689">
        <ele>1017.03</ele>
        <time>2017-06-18T13:21:25Z</time>
      </trkpt>
      <trkpt lat="48.02138" lon="7.01692">
        <ele>1022.03</ele>
        <time>2017-06-18T13:21:41Z</time>
      </trkpt>
      <trkpt lat="48.02139" lon="7.01691">
        <ele>1024.03</ele>
        <time>2017-06-18T13:21:57Z</time>
      </trkpt>
      <trkpt lat="48.02128" lon="7.01693">
        <ele>1027.03</ele>
        <time>2017-06-18T13:22:36Z</time>
      </trkpt>
      <trkpt lat="48.02119" lon="7.01702">
        <ele>1032.03</ele>
        <time>2017-06-18T13:22:52Z</time>
      </trkpt>
      <trkpt lat="48.02117" lon="7.01708">
        <ele>1030.03</ele>
        <time>2017-06-18T13:23:07Z</time>
      </trkpt>
      <trkpt lat="48.02114" lon="7.01709">
        <ele>1031.03</ele>
        <time>2017-06-18T13:23:23Z</time>
      </trkpt>
      <trkpt lat="48.02109" lon="7.01711">
        <ele>1031.03</ele>
        <time>2017-06-18T13:23:38Z</time>
      </trkpt>
      <trkpt lat="48.02104" lon="7.01714">
        <ele>1029.03</ele>
        <time>2017-06-18T13:23:53Z</time>
      </trkpt>
      <trkpt lat="48.02106" lon="7.01712">
        <ele>1030.03</ele>
        <time>2017-06-18T13:24:09Z</time>
      </trkpt>
      <trkpt lat="48.02105" lon="7.01713">
        <ele>1027.03</ele>
        <time>2017-06-18T13:24:25Z</time>
      </trkpt>
      <trkpt lat="48.02102" lon="7.01718">
        <ele>1026.03</ele>
        <time>2017-06-18T13:24:41Z</time>
      </trkpt>
      <trkpt lat="48.021" lon="7.01722">
        <ele>1028.03</ele>
        <time>2017-06-18T13:24:56Z</time>
      </trkpt>
      <trkpt lat="48.02091" lon="7.01725">
        <ele>1029.03</ele>
        <time>2017-06-18T13:25:12Z</time>
      </trkpt>
      <trkpt lat="48.02083" lon="7.0173">
        <ele>1034.03</ele>
        <time>2017-06-18T13:25:27Z</time>
      </trkpt>
      <trkpt lat="48.02075" lon="7.01731">
        <ele>1034.03</ele>
        <time>2017-06-18T13:25:43Z</time>
      </trkpt>
      <trkpt lat="48.02064" lon="7.01735">
        <ele>1034.03</ele>
        <time>2017-06-18T13:25:58Z</time>
      </trkpt>
      <trkpt lat="48.02055" lon="7.01734">
        <ele>1031.03</ele>
        <time>2017-06-18T13:26:14Z</time>
      </trkpt>
      <trkpt lat="48.02049" lon="7.01736">
        <ele>1032.03</ele>
        <time>2017-06-18T13:26:29Z</time>
      </trkpt>
      <trkpt lat="48.02046" lon="7.01734">
        <ele>1034.03</ele>
        <time>2017-06-18T13:26:45Z</time>
      </trkpt>
      <trkpt lat="48.02041" lon="7.01731">
        <ele>1036.03</ele>
        <time>2017-06-18T13:27:01Z</time>
      </trkpt>
      <trkpt lat="48.02037" lon="7.01724">
        <ele>1044.03</ele>
        <time>2017-06-18T13:28:20Z</time>
      </trkpt>
      <trkpt lat="48.02041" lon="7.01722">
        <ele>1045.03</ele>
        <time>2017-06-18T13:29:07Z</time>
      </trkpt>
      <trkpt lat="48.02047" lon="7.01722">
        <ele>1045.03</ele>
        <time>2017-06-18T13:29:39Z</time>
      </trkpt>
      <trkpt lat="48.0205" lon="7.01721">
        <ele>1043.03</ele>
        <time>2017-06-18T13:29:55Z</time>
      </trkpt>
      <trkpt lat="48.02048" lon="7.01719">
        <ele>1047.03</ele>
        <time>2017-06-18T13:30:11Z</time>
      </trkpt>
      <trkpt lat="48.02043" lon="7.01715">
        <ele>1044.03</ele>
        <time>2017-06-18T13:30:26Z</time>
      </trkpt>
      <trkpt lat="48.02041" lon="7.01717">
        <ele>1046.03</ele>
        <time>2017-06-18T13:30:42Z</time>
      </trkpt>
      <trkpt lat="48.02035" lon="7.01716">
        <ele>1052.03</ele>
        <time>2017-06-18T13:30:57Z</time>
      </trkpt>
      <trkpt lat="48.02035" lon="7.01713">
        <ele>1052.03</ele>
        <time>2017-06-18T13:31:13Z</time>
      </trkpt>
      <trkpt lat="48.02026" lon="7.01703">
        <ele>1053.03</ele>
        <time>2017-06-18T13:31:29Z</time>
      </trkpt>
      <trkpt lat="48.02024" lon="7.01702">
        <ele>1053.03</ele>
        <time>2017-06-18T13:31:44Z</time>
      </trkpt>
      <trkpt lat="48.02015" lon="7.01716">
        <ele>1058.03</ele>
        <time>2017-06-18T13:32:00Z</time>
      </trkpt>
      <trkpt lat="48.02014" lon="7.01719">
        <ele>1054.03</ele>
        <time>2017-06-18T13:33:00Z</time>
      </trkpt>
      <trkpt lat="48.02009" lon="7.01725">
        <ele>1055.03</ele>
        <time>2017-06-18T13:33:31Z</time>
      </trkpt>
      <trkpt lat="48.01997" lon="7.01735">
        <ele>1052.03</ele>
        <time>2017-06-18T13:33:46Z</time>
      </trkpt>
      <trkpt lat="48.0199" lon="7.0174">
        <ele>1055.03</ele>
        <time>2017-06-18T13:34:02Z</time>
      </trkpt>
      <trkpt lat="48.01987" lon="7.01743">
        <ele>1061.03</ele>
        <time>2017-06-18T13:34:17Z</time>
      </trkpt>
      <trkpt lat="48.0198" lon="7.01741">
        <ele>1057.03</ele>
        <time>2017-06-18T13:34:32Z</time>
      </trkpt>
      <trkpt lat="48.01975" lon="7.0174">
        <ele>1058.03</ele>
        <time>2017-06-18T13:34:47Z</time>
      </trkpt>
      <trkpt lat="48.01966" lon="7.01733">
        <ele>1051.03</ele>
        <time>2017-06-18T13:35:03Z</time>
      </trkpt>
      <trkpt lat="48.01963" lon="7.01734">
        <ele>1070.03</ele>
        <time>2017-06-18T13:36:37Z</time>
      </trkpt>
      <trkpt lat="48.01961" lon="7.01733">
        <ele>1066.03</ele>
        <time>2017-06-18T13:36:53Z</time>
      </trkpt>
      <trkpt lat="48.01946" lon="7.0173">
        <ele>1075.03</ele>
        <time>2017-06-18T13:37:23Z</time>
      </trkpt>
      <trkpt lat="48.01937" lon="7.01731">
        <ele>1076.03</ele>
        <time>2017-06-18T13:37:38Z</time>
      </trkpt>
      <trkpt lat="48.01932" lon="7.01727">
        <ele>1068.03</ele>
        <time>2017-06-18T13:37:54Z</time>
      </trkpt>
      <trkpt lat="48.01931" lon="7.01726">
        <ele>1069.03</ele>
        <time>2017-06-18T13:38:10Z</time>
      </trkpt>
      <trkpt lat="48.01931" lon="7.01726">
        <ele>1069.03</ele>
        <time>2017-06-18T13:38:25Z</time>
      </trkpt>
      <trkpt lat="48.01927" lon="7.01725">
        <ele>1068.03</ele>
        <time>2017-06-18T13:38:40Z</time>
      </trkpt>
      <trkpt lat="48.01902" lon="7.01734">
        <ele>1076.03</ele>
        <time>2017-06-18T13:39:27Z</time>
      </trkpt>
      <trkpt lat="48.01898" lon="7.01749">
        <ele>1075.03</ele>
        <time>2017-06-18T13:40:14Z</time>
      </trkpt>
      <trkpt lat="48.01876" lon="7.01764">
        <ele>1071.03</ele>
        <time>2017-06-18T13:40:45Z</time>
      </trkpt>
      <trkpt lat="48.01862" lon="7.01779">
        <ele>1063.03</ele>
        <time>2017-06-18T13:41:00Z</time>
      </trkpt>
      <trkpt lat="48.01855" lon="7.01788">
        <ele>1070.03</ele>
        <time>2017-06-18T13:41:15Z</time>
      </trkpt>
      <trkpt lat="48.01843" lon="7.01791">
        <ele>1070.03</ele>
        <time>2017-06-18T13:41:31Z</time>
      </trkpt>
      <trkpt lat="48.01824" lon="7.01783">
        <ele>1068.03</ele>
        <time>2017-06-18T13:41:47Z</time>
      </trkpt>
      <trkpt lat="48.01813" lon="7.0179">
        <ele>1067.03</ele>
        <time>2017-06-18T13:42:03Z</time>
      </trkpt>
      <trkpt lat="48.01795" lon="7.01843">
        <ele>1078.03</ele>
        <time>2017-06-18T13:43:11Z</time>
      </trkpt>
      <trkpt lat="48.01794" lon="7.01852">
        <ele>1076.03</ele>
        <time>2017-06-18T13:43:26Z</time>
      </trkpt>
      <trkpt lat="48.01797" lon="7.01857">
        <ele>1076.03</ele>
        <time>2017-06-18T13:53:21Z</time>
      </trkpt>
      <trkpt lat="48.01794" lon="7.01849">
        <ele>1078.03</ele>
        <time>2017-06-18T13:53:36Z</time>
      </trkpt>
      <trkpt lat="48.01793" lon="7.01833">
        <ele>1076.03</ele>
        <time>2017-06-18T13:53:52Z</time>
      </trkpt>
      <trkpt lat="48.01793" lon="7.01825">
        <ele>1084.03</ele>
        <time>2017-06-18T13:54:08Z</time>
      </trkpt>
      <trkpt lat="48.01793" lon="7.01813">
        <ele>1088.03</ele>
        <time>2017-06-18T13:54:23Z</time>
      </trkpt>
      <trkpt lat="48.01781" lon="7.01808">
        <ele>1093.03</ele>
        <time>2017-06-18T13:54:39Z</time>
      </trkpt>
      <trkpt lat="48.01775" lon="7.01803">
        <ele>1092.03</ele>
        <time>2017-06-18T13:54:54Z</time>
      </trkpt>
      <trkpt lat="48.0177" lon="7.01791">
        <ele>1097.03</ele>
        <time>2017-06-18T13:55:10Z</time>
      </trkpt>
      <trkpt lat="48.01768" lon="7.01782">
        <ele>1094.03</ele>
        <time>2017-06-18T13:55:26Z</time>
      </trkpt>
      <trkpt lat="48.01769" lon="7.01769">
        <ele>1097.03</ele>
        <time>2017-06-18T13:55:42Z</time>
      </trkpt>
      <trkpt lat="48.01759" lon="7.01764">
        <ele>1095.03</ele>
        <time>2017-06-18T13:55:58Z</time>
      </trkpt>
      <trkpt lat="48.01758" lon="7.01754">
        <ele>1101.03</ele>
        <time>2017-06-18T13:56:29Z</time>
      </trkpt>
      <trkpt lat="48.0176" lon="7.0175">
        <ele>1097.03</ele>
        <time>2017-06-18T13:56:59Z</time>
      </trkpt>
      <trkpt lat="48.01762" lon="7.01751">
        <ele>1104.03</ele>
        <time>2017-06-18T13:57:30Z</time>
      </trkpt>
      <trkpt lat="48.01768" lon="7.0175">
        <ele>1114.03</ele>
        <time>2017-06-18T13:57:46Z</time>
      </trkpt>
      <trkpt lat="48.01775" lon="7.0175">
        <ele>1114.03</ele>
        <time>2017-06-18T13:58:02Z</time>
      </trkpt>
      <trkpt lat="48.01781" lon="7.01746">
        <ele>1107.03</ele>
        <time>2017-06-18T13:58:17Z</time>
      </trkpt>
      <trkpt lat="48.01783" lon="7.01739">
        <ele>1115.03</ele>
        <time>2017-06-18T13:58:33Z</time>
      </trkpt>
      <trkpt lat="48.01781" lon="7.01727">
        <ele>1119.03</ele>
        <time>2017-06-18T13:58:49Z</time>
      </trkpt>
      <trkpt lat="48.01781" lon="7.01714">
        <ele>1111.03</ele>
        <time>2017-06-18T13:59:05Z</time>
      </trkpt>
      <trkpt lat="48.0177" lon="7.01706">
        <ele>1113.03</ele>
        <time>2017-06-18T13:59:21Z</time>
      </trkpt>
      <trkpt lat="48.01764" lon="7.0171">
        <ele>1114.03</ele>
        <time>2017-06-18T13:59:37Z</time>
      </trkpt>
      <trkpt lat="48.01757" lon="7.01703">
        <ele>1121.03</ele>
        <time>2017-06-18T13:59:52Z</time>
      </trkpt>
      <trkpt lat="48.01753" lon="7.01693">
        <ele>1117.03</ele>
        <time>2017-06-18T14:00:08Z</time>
      </trkpt>
      <trkpt lat="48.01746" lon="7.01689">
        <ele>1120.03</ele>
        <time>2017-06-18T14:00:23Z</time>
      </trkpt>
      <trkpt lat="48.0174" lon="7.01676">
        <ele>1125.03</ele>
        <time>2017-06-18T14:00:39Z</time>
      </trkpt>
      <trkpt lat="48.01735" lon="7.0166">
        <ele>1129.03</ele>
        <time>2017-06-18T14:00:55Z</time>
      </trkpt>
      <trkpt lat="48.01732" lon="7.01654">
        <ele>1133.03</ele>
        <time>2017-06-18T14:01:11Z</time>
      </trkpt>
      <trkpt lat="48.01728" lon="7.0164">
        <ele>1136.03</ele>
        <time>2017-06-18T14:01:26Z</time>
      </trkpt>
      <trkpt lat="48.01719" lon="7.01628">
        <ele>1137.03</ele>
        <time>2017-06-18T14:01:41Z</time>
      </trkpt>
      <trkpt lat="48.01714" lon="7.01592">
        <ele>1130.03</ele>
        <time>2017-06-18T14:02:12Z</time>
      </trkpt>
      <trkpt lat="48.01704" lon="7.01561">
        <ele>1126.03</ele>
        <time>2017-06-18T14:02:59Z</time>
      </trkpt>
      <trkpt lat="48.01675" lon="7.01525">
        <ele>1135.03</ele>
        <time>2017-06-18T14:03:46Z</time>
      </trkpt>
      <trkpt lat="48.01663" lon="7.01518">
        <ele>1145.03</ele>
        <time>2017-06-18T14:04:01Z</time>
      </trkpt>
      <trkpt lat="48.01657" lon="7.01509">
        <ele>1144.03</ele>
        <time>2017-06-18T14:04:17Z</time>
      </trkpt>
      <trkpt lat="48.01645" lon="7.01499">
        <ele>1146.03</ele>
        <time>2017-06-18T14:04:32Z</time>
      </trkpt>
      <trkpt lat="48.01639" lon="7.01489">
        <ele>1146.03</ele>
        <time>2017-06-18T14:04:47Z</time>
      </trkpt>
      <trkpt lat="48.01634" lon="7.01477">
        <ele>1151.03</ele>
        <time>2017-06-18T14:05:03Z</time>
      </trkpt>
      <trkpt lat="48.0163" lon="7.01472">
        <ele>1147.03</ele>
        <time>2017-06-18T14:05:18Z</time>
      </trkpt>
      <trkpt lat="48.01631" lon="7.0147">
        <ele>1144.03</ele>
        <time>2017-06-18T14:05:34Z</time>
      </trkpt>
      <trkpt lat="48.01622" lon="7.01465">
        <ele>1152.03</ele>
        <time>2017-06-18T14:05:49Z</time>
      </trkpt>
      <trkpt lat="48.0161" lon="7.01441">
        <ele>1156.03</ele>
        <time>2017-06-18T14:06:14Z</time>
      </trkpt>
      <trkpt lat="48.01602" lon="7.01435">
        <ele>1157.03</ele>
        <time>2017-06-18T14:06:29Z</time>
      </trkpt>
      <trkpt lat="48.01595" lon="7.01425">
        <ele>1162.03</ele>
        <time>2017-06-18T14:06:44Z</time>
      </trkpt>
      <trkpt lat="48.01585" lon="7.01409">
        <ele>1164.03</ele>
        <time>2017-06-18T14:07:00Z</time>
      </trkpt>
      <trkpt lat="48.01571" lon="7.01393">
        <ele>1163.03</ele>
        <time>2017-06-18T14:07:16Z</time>
      </trkpt>
      <trkpt lat="48.01558" lon="7.01381">
        <ele>1163.03</ele>
        <time>2017-06-18T14:07:31Z</time>
      </trkpt>
      <trkpt lat="48.01546" lon="7.0137">
        <ele>1165.03</ele>
        <time>2017-06-18T14:07:46Z</time>
      </trkpt>
      <trkpt lat="48.01531" lon="7.01362">
        <ele>1165.03</ele>
        <time>2017-06-18T14:08:02Z</time>
      </trkpt>
      <trkpt lat="48.01517" lon="7.01351">
        <ele>1163.03</ele>
        <time>2017-06-18T14:08:18Z</time>
      </trkpt>
      <trkpt lat="48.01505" lon="7.01326">
        <ele>1163.03</ele>
        <time>2017-06-18T14:08:34Z</time>
      </trkpt>
      <trkpt lat="48.01498" lon="7.01313">
        <ele>1165.03</ele>
        <time>2017-06-18T14:08:50Z</time>
      </trkpt>
      <trkpt lat="48.01496" lon="7.01305">
        <ele>1165.03</ele>
        <time>2017-06-18T14:09:06Z</time>
      </trkpt>
      <trkpt lat="48.01495" lon="7.01298">
        <ele>1167.03</ele>
        <time>2017-06-18T14:09:22Z</time>
      </trkpt>
      <trkpt lat="48.0149" lon="7.01282">
        <ele>1168.03</ele>
        <time>2017-06-18T14:09:53Z</time>
      </trkpt>
      <trkpt lat="48.01491" lon="7.01269">
        <ele>1169.03</ele>
        <time>2017-06-18T14:10:08Z</time>
      </trkpt>
      <trkpt lat="48.01492" lon="7.01258">
        <ele>1169.03</ele>
        <time>2017-06-18T14:10:24Z</time>
      </trkpt>
      <trkpt lat="48.0149" lon="7.01236">
        <ele>1172.03</ele>
        <time>2017-06-18T14:10:40Z</time>
      </trkpt>
      <trkpt lat="48.01483" lon="7.01213">
        <ele>1173.03</ele>
        <time>2017-06-18T14:10:56Z</time>
      </trkpt>
      <trkpt lat="48.0148" lon="7.01191">
        <ele>1164.03</ele>
        <time>2017-06-18T14:11:35Z</time>
      </trkpt>
      <trkpt lat="48.01478" lon="7.01199">
        <ele>1168.03</ele>
        <time>2017-06-18T14:34:36Z</time>
      </trkpt>
      <trkpt lat="48.01485" lon="7.01219">
        <ele>1167.03</ele>
        <time>2017-06-18T14:35:08Z</time>
      </trkpt>
      <trkpt lat="48.01495" lon="7.01233">
        <ele>1168.03</ele>
        <time>2017-06-18T14:35:23Z</time>
      </trkpt>
      <trkpt lat="48.01504" lon="7.01216">
        <ele>1171.03</ele>
        <time>2017-06-18T14:35:39Z</time>
      </trkpt>
      <trkpt lat="48.01515" lon="7.01215">
        <ele>1174.03</ele>
        <time>2017-06-18T14:35:55Z</time>
      </trkpt>
      <trkpt lat="48.01524" lon="7.01236">
        <ele>1173.03</ele>
        <time>2017-06-18T14:36:11Z</time>
      </trkpt>
      <trkpt lat="48.0153" lon="7.0125">
        <ele>1173.03</ele>
        <time>2017-06-18T14:36:26Z</time>
      </trkpt>
      <trkpt lat="48.01537" lon="7.01255">
        <ele>1176.03</ele>
        <time>2017-06-18T14:36:42Z</time>
      </trkpt>
      <trkpt lat="48.01548" lon="7.01264">
        <ele>1176.03</ele>
        <time>2017-06-18T14:37:44Z</time>
      </trkpt>
      <trkpt lat="48.01556" lon="7.01264">
        <ele>1177.03</ele>
        <time>2017-06-18T14:38:00Z</time>
      </trkpt>
      <trkpt lat="48.01564" lon="7.0127">
        <ele>1178.03</ele>
        <time>2017-06-18T14:38:31Z</time>
      </trkpt>
      <trkpt lat="48.0159" lon="7.01281">
        <ele>1180.03</ele>
        <time>2017-06-18T14:39:49Z</time>
      </trkpt>
      <trkpt lat="48.01604" lon="7.01286">
        <ele>1185.03</ele>
        <time>2017-06-18T14:40:04Z</time>
      </trkpt>
      <trkpt lat="48.01618" lon="7.01287">
        <ele>1192.03</ele>
        <time>2017-06-18T14:40:20Z</time>
      </trkpt>
      <trkpt lat="48.0163" lon="7.01292">
        <ele>1193.03</ele>
        <time>2017-06-18T14:40:35Z</time>
      </trkpt>
      <trkpt lat="48.01639" lon="7.013">
        <ele>1197.03</ele>
        <time>2017-06-18T14:41:37Z</time>
      </trkpt>
      <trkpt lat="48.01653" lon="7.01306">
        <ele>1199.03</ele>
        <time>2017-06-18T14:41:52Z</time>
      </trkpt>
      <trkpt lat="48.01668" lon="7.01315">
        <ele>1202.03</ele>
        <time>2017-06-18T14:42:08Z</time>
      </trkpt>
      <trkpt lat="48.01682" lon="7.01317">
        <ele>1203.03</ele>
        <time>2017-06-18T14:42:24Z</time>
      </trkpt>
      <trkpt lat="48.017" lon="7.01317">
        <ele>1207.03</ele>
        <time>2017-06-18T14:42:40Z</time>
      </trkpt>
      <trkpt lat="48.01715" lon="7.01317">
        <ele>1209.03</ele>
        <time>2017-06-18T14:42:55Z</time>
      </trkpt>
      <trkpt lat="48.01734" lon="7.01319">
        <ele>1212.03</ele>
        <time>2017-06-18T14:43:11Z</time>
      </trkpt>
      <trkpt lat="48.01745" lon="7.01316">
        <ele>1215.03</ele>
        <time>2017-06-18T14:43:26Z</time>
      </trkpt>
      <trkpt lat="48.01754" lon="7.01313">
        <ele>1218.03</ele>
        <time>2017-06-18T14:43:41Z</time>
      </trkpt>
      <trkpt lat="48.01766" lon="7.0131">
        <ele>1220.03</ele>
        <time>2017-06-18T14:43:57Z</time>
      </trkpt>
      <trkpt lat="48.01776" lon="7.01302">
        <ele>1222.03</ele>
        <time>2017-06-18T14:44:12Z</time>
      </trkpt>
      <trkpt lat="48.01782" lon="7.01293">
        <ele>1227.03</ele>
        <time>2017-06-18T14:44:28Z</time>
      </trkpt>
      <trkpt lat="48.01793" lon="7.01289">
        <ele>1229.03</ele>
        <time>2017-06-18T14:44:43Z</time>
      </trkpt>
      <trkpt lat="48.018" lon="7.01284">
        <ele>1234.03</ele>
        <time>2017-06-18T14:44:59Z</time>
      </trkpt>
      <trkpt lat="48.01807" lon="7.01276">
        <ele>1235.03</ele>
        <time>2017-06-18T14:45:14Z</time>
      </trkpt>
      <trkpt lat="48.01816" lon="7.01264">
        <ele>1238.03</ele>
        <time>2017-06-18T14:45:30Z</time>
      </trkpt>
      <trkpt lat="48.01824" lon="7.01252">
        <ele>1239.03</ele>
        <time>2017-06-18T14:45:46Z</time>
      </trkpt>
      <trkpt lat="48.01834" lon="7.01236">
        <ele>1242.03</ele>
        <time>2017-06-18T14:46:01Z</time>
      </trkpt>
      <trkpt lat="48.01848" lon="7.01228">
        <ele>1245.03</ele>
        <time>2017-06-18T14:46:17Z</time>
      </trkpt>
      <trkpt lat="48.01862" lon="7.01221">
        <ele>1248.03</ele>
        <time>2017-06-18T14:46:32Z</time>
      </trkpt>
      <trkpt lat="48.01874" lon="7.01219">
        <ele>1249.03</ele>
        <time>2017-06-18T14:46:47Z</time>
      </trkpt>
      <trkpt lat="48.01891" lon="7.01217">
        <ele>1252.03</ele>
        <time>2017-06-18T14:47:03Z</time>
      </trkpt>
      <trkpt lat="48.01901" lon="7.01222">
        <ele>1249.03</ele>
        <time>2017-06-18T14:47:19Z</time>
      </trkpt>
      <trkpt lat="48.0191" lon="7.01225">
        <ele>1249.03</ele>
        <time>2017-06-18T14:47:34Z</time>
      </trkpt>
      <trkpt lat="48.01918" lon="7.01223">
        <ele>1248.03</ele>
        <time>2017-06-18T14:47:50Z</time>
      </trkpt>
      <trkpt lat="48.01922" lon="7.01224">
        <ele>1248.03</ele>
        <time>2017-06-18T14:48:06Z</time>
      </trkpt>
      <trkpt lat="48.01922" lon="7.01224">
        <ele>1253.03</ele>
        <time>2017-06-18T14:48:22Z</time>
      </trkpt>
      <trkpt lat="48.01925" lon="7.01221">
        <ele>1251.03</ele>
        <time>2017-06-18T14:48:38Z</time>
      </trkpt>
      <trkpt lat="48.01924" lon="7.01217">
        <ele>1248.03</ele>
        <time>2017-06-18T14:48:54Z</time>
      </trkpt>
      <trkpt lat="48.01922" lon="7.01217">
        <ele>1250.03</ele>
        <time>2017-06-18T14:49:09Z</time>
      </trkpt>
      <trkpt lat="48.01919" lon="7.01213">
        <ele>1252.03</ele>
        <time>2017-06-18T14:49:25Z</time>
      </trkpt>
      <trkpt lat="48.01918" lon="7.01196">
        <ele>1255.03</ele>
        <time>2017-06-18T14:49:41Z</time>
      </trkpt>
      <trkpt lat="48.01918" lon="7.01178">
        <ele>1260.03</ele>
        <time>2017-06-18T14:49:56Z</time>
      </trkpt>
      <trkpt lat="48.01926" lon="7.01155">
        <ele>1261.03</ele>
        <time>2017-06-18T14:50:12Z</time>
      </trkpt>
      <trkpt lat="48.01938" lon="7.01146">
        <ele>1266.03</ele>
        <time>2017-06-18T14:50:27Z</time>
      </trkpt>
      <trkpt lat="48.01951" lon="7.01131">
        <ele>1266.03</ele>
        <time>2017-06-18T14:50:43Z</time>
      </trkpt>
      <trkpt lat="48.01958" lon="7.01116">
        <ele>1272.03</ele>
        <time>2017-06-18T14:50:59Z</time>
      </trkpt>
      <trkpt lat="48.01969" lon="7.01099">
        <ele>1276.03</ele>
        <time>2017-06-18T14:51:15Z</time>
      </trkpt>
      <trkpt lat="48.01978" lon="7.01085">
        <ele>1281.03</ele>
        <time>2017-06-18T14:51:30Z</time>
      </trkpt>
      <trkpt lat="48.01982" lon="7.01068">
        <ele>1286.03</ele>
        <time>2017-06-18T14:51:46Z</time>
      </trkpt>
      <trkpt lat="48.01989" lon="7.01049">
        <ele>1287.03</ele>
        <time>2017-06-18T14:52:02Z</time>
      </trkpt>
      <trkpt lat="48.01998" lon="7.0103">
        <ele>1292.03</ele>
        <time>2017-06-18T14:52:18Z</time>
      </trkpt>
      <trkpt lat="48.02007" lon="7.01013">
        <ele>1295.03</ele>
        <time>2017-06-18T14:52:33Z</time>
      </trkpt>
      <trkpt lat="48.02014" lon="7.00993">
        <ele>1293.03</ele>
        <time>2017-06-18T14:52:49Z</time>
      </trkpt>
      <trkpt lat="48.02024" lon="7.00974">
        <ele>1294.03</ele>
        <time>2017-06-18T14:53:04Z</time>
      </trkpt>
      <trkpt lat="48.0203" lon="7.00951">
        <ele>1298.03</ele>
        <time>2017-06-18T14:53:20Z</time>
      </trkpt>
      <trkpt lat="48.0204" lon="7.00933">
        <ele>1301.03</ele>
        <time>2017-06-18T14:53:36Z</time>
      </trkpt>
      <trkpt lat="48.0205" lon="7.00913">
        <ele>1300.03</ele>
        <time>2017-06-18T14:53:52Z</time>
      </trkpt>
      <trkpt lat="48.02057" lon="7.00895">
        <ele>1301.03</ele>
        <time>2017-06-18T14:54:08Z</time>
      </trkpt>
      <trkpt lat="48.02065" lon="7.00877">
        <ele>1303.03</ele>
        <time>2017-06-18T14:54:24Z</time>
      </trkpt>
      <trkpt lat="48.02076" lon="7.00857">
        <ele>1301.03</ele>
        <time>2017-06-18T14:54:39Z</time>
      </trkpt>
      <trkpt lat="48.02089" lon="7.0084">
        <ele>1306.03</ele>
        <time>2017-06-18T14:54:54Z</time>
      </trkpt>
      <trkpt lat="48.02099" lon="7.00821">
        <ele>1308.03</ele>
        <time>2017-06-18T14:55:10Z</time>
      </trkpt>
      <trkpt lat="48.0211" lon="7.008">
        <ele>1305.03</ele>
        <time>2017-06-18T14:55:26Z</time>
      </trkpt>
      <trkpt lat="48.02117" lon="7.00777">
        <ele>1304.03</ele>
        <time>2017-06-18T14:55:42Z</time>
      </trkpt>
      <trkpt lat="48.02128" lon="7.00758">
        <ele>1307.03</ele>
        <time>2017-06-18T14:55:57Z</time>
      </trkpt>
      <trkpt lat="48.02131" lon="7.00758">
        <ele>1310.03</ele>
        <time>2017-06-18T14:56:13Z</time>
      </trkpt>
      <trkpt lat="48.02137" lon="7.0075">
        <ele>1310.03</ele>
        <time>2017-06-18T14:56:29Z</time>
      </trkpt>
      <trkpt lat="48.02149" lon="7.0073">
        <ele>1310.03</ele>
        <time>2017-06-18T14:56:44Z</time>
      </trkpt>
      <trkpt lat="48.02157" lon="7.00713">
        <ele>1308.03</ele>
        <time>2017-06-18T14:57:00Z</time>
      </trkpt>
      <trkpt lat="48.02167" lon="7.00702">
        <ele>1304.03</ele>
        <time>2017-06-18T14:57:15Z</time>
      </trkpt>
      <trkpt lat="48.02181" lon="7.00694">
        <ele>1308.03</ele>
        <time>2017-06-18T14:57:31Z</time>
      </trkpt>
      <trkpt lat="48.02195" lon="7.00685">
        <ele>1307.03</ele>
        <time>2017-06-18T14:58:01Z</time>
      </trkpt>
      <trkpt lat="48.02201" lon="7.00683">
        <ele>1306.03</ele>
        <time>2017-06-18T14:58:17Z</time>
      </trkpt>
      <trkpt lat="48.02223" lon="7.00677">
        <ele>1301.03</ele>
        <time>2017-06-18T15:00:36Z</time>
      </trkpt>
      <trkpt lat="48.02239" lon="7.00679">
        <ele>1299.03</ele>
        <time>2017-06-18T15:00:51Z</time>
      </trkpt>
      <trkpt lat="48.02254" lon="7.00681">
        <ele>1300.03</ele>
        <time>2017-06-18T15:01:07Z</time>
      </trkpt>
      <trkpt lat="48.02269" lon="7.00677">
        <ele>1299.03</ele>
        <time>2017-06-18T15:01:22Z</time>
      </trkpt>
      <trkpt lat="48.02285" lon="7.00678">
        <ele>1299.03</ele>
        <time>2017-06-18T15:01:38Z</time>
      </trkpt>
      <trkpt lat="48.02303" lon="7.00675">
        <ele>1294.03</ele>
        <time>2017-06-18T15:01:54Z</time>
      </trkpt>
      <trkpt lat="48.02322" lon="7.00672">
        <ele>1293.03</ele>
        <time>2017-06-18T15:02:10Z</time>
      </trkpt>
      <trkpt lat="48.02331" lon="7.00667">
        <ele>1288.03</ele>
        <time>2017-06-18T15:02:41Z</time>
      </trkpt>
      <trkpt lat="48.02348" lon="7.00662">
        <ele>1290.03</ele>
        <time>2017-06-18T15:03:12Z</time>
      </trkpt>
      <trkpt lat="48.02378" lon="7.00686">
        <ele>1293.03</ele>
        <time>2017-06-18T15:05:04Z</time>
      </trkpt>
      <trkpt lat="48.024" lon="7.00698">
        <ele>1291.03</ele>
        <time>2017-06-18T15:05:20Z</time>
      </trkpt>
      <trkpt lat="48.02419" lon="7.00714">
        <ele>1292.03</ele>
        <time>2017-06-18T15:05:36Z</time>
      </trkpt>
      <trkpt lat="48.0244" lon="7.00727">
        <ele>1291.03</ele>
        <time>2017-06-18T15:05:52Z</time>
      </trkpt>
      <trkpt lat="48.02456" lon="7.00741">
        <ele>1289.03</ele>
        <time>2017-06-18T15:06:07Z</time>
      </trkpt>
      <trkpt lat="48.02472" lon="7.00762">
        <ele>1291.03</ele>
        <time>2017-06-18T15:06:22Z</time>
      </trkpt>
      <trkpt lat="48.02488" lon="7.00775">
        <ele>1294.03</ele>
        <time>2017-06-18T15:06:37Z</time>
      </trkpt>
      <trkpt lat="48.02492" lon="7.0078">
        <ele>1292.03</ele>
        <time>2017-06-18T15:06:53Z</time>
      </trkpt>
      <trkpt lat="48.02508" lon="7.008">
        <ele>1293.03</ele>
        <time>2017-06-18T15:07:09Z</time>
      </trkpt>
      <trkpt lat="48.02529" lon="7.00816">
        <ele>1291.03</ele>
        <time>2017-06-18T15:07:24Z</time>
      </trkpt>
      <trkpt lat="48.02547" lon="7.00835">
        <ele>1291.03</ele>
        <time>2017-06-18T15:07:40Z</time>
      </trkpt>
      <trkpt lat="48.02565" lon="7.00854">
        <ele>1289.03</ele>
        <time>2017-06-18T15:07:56Z</time>
      </trkpt>
      <trkpt lat="48.02586" lon="7.00868">
        <ele>1286.03</ele>
        <time>2017-06-18T15:08:12Z</time>
      </trkpt>
      <trkpt lat="48.02608" lon="7.00866">
        <ele>1286.03</ele>
        <time>2017-06-18T15:08:28Z</time>
      </trkpt>
      <trkpt lat="48.02626" lon="7.00868">
        <ele>1286.03</ele>
        <time>2017-06-18T15:08:43Z</time>
      </trkpt>
      <trkpt lat="48.02646" lon="7.00869">
        <ele>1288.03</ele>
        <time>2017-06-18T15:08:59Z</time>
      </trkpt>
      <trkpt lat="48.02661" lon="7.00871">
        <ele>1286.03</ele>
        <time>2017-06-18T15:09:15Z</time>
      </trkpt>
      <trkpt lat="48.02679" lon="7.00883">
        <ele>1285.03</ele>
        <time>2017-06-18T15:09:31Z</time>
      </trkpt>
      <trkpt lat="48.02696" lon="7.00882">
        <ele>1282.03</ele>
        <time>2017-06-18T15:09:46Z</time>
      </trkpt>
      <trkpt lat="48.02718" lon="7.00882">
        <ele>1281.03</ele>
        <time>2017-06-18T15:10:02Z</time>
      </trkpt>
      <trkpt lat="48.0274" lon="7.00884">
        <ele>1282.03</ele>
        <time>2017-06-18T15:10:18Z</time>
      </trkpt>
      <trkpt lat="48.02761" lon="7.00888">
        <ele>1281.03</ele>
        <time>2017-06-18T15:10:34Z</time>
      </trkpt>
      <trkpt lat="48.0278" lon="7.00896">
        <ele>1288.03</ele>
        <time>2017-06-18T15:10:49Z</time>
      </trkpt>
      <trkpt lat="48.028" lon="7.00897">
        <ele>1286.03</ele>
        <time>2017-06-18T15:11:05Z</time>
      </trkpt>
      <trkpt lat="48.02816" lon="7.00897">
        <ele>1286.03</ele>
        <time>2017-06-18T15:11:20Z</time>
      </trkpt>
      <trkpt lat="48.02838" lon="7.00897">
        <ele>1283.03</ele>
        <time>2017-06-18T15:11:35Z</time>
      </trkpt>
      <trkpt lat="48.02855" lon="7.00899">
        <ele>1284.03</ele>
        <time>2017-06-18T15:11:51Z</time>
      </trkpt>
      <trkpt lat="48.02873" lon="7.0091">
        <ele>1283.03</ele>
        <time>2017-06-18T15:12:07Z</time>
      </trkpt>
      <trkpt lat="48.02887" lon="7.00932">
        <ele>1285.03</ele>
        <time>2017-06-18T15:12:23Z</time>
      </trkpt>
      <trkpt lat="48.02894" lon="7.00953">
        <ele>1288.03</ele>
        <time>2017-06-18T15:12:39Z</time>
      </trkpt>
      <trkpt lat="48.02901" lon="7.00974">
        <ele>1288.03</ele>
        <time>2017-06-18T15:12:54Z</time>
      </trkpt>
      <trkpt lat="48.02903" lon="7.01001">
        <ele>1287.03</ele>
        <time>2017-06-18T15:13:10Z</time>
      </trkpt>
      <trkpt lat="48.02909" lon="7.01025">
        <ele>1291.03</ele>
        <time>2017-06-18T15:13:26Z</time>
      </trkpt>
      <trkpt lat="48.02916" lon="7.01051">
        <ele>1293.03</ele>
        <time>2017-06-18T15:13:42Z</time>
      </trkpt>
      <trkpt lat="48.02921" lon="7.01068">
        <ele>1293.03</ele>
        <time>2017-06-18T15:13:57Z</time>
      </trkpt>
      <trkpt lat="48.02934" lon="7.01091">
        <ele>1296.03</ele>
        <time>2017-06-18T15:14:13Z</time>
      </trkpt>
      <trkpt lat="48.0295" lon="7.01111">
        <ele>1298.03</ele>
        <time>2017-06-18T15:14:29Z</time>
      </trkpt>
      <trkpt lat="48.02966" lon="7.01126">
        <ele>1298.03</ele>
        <time>2017-06-18T15:14:45Z</time>
      </trkpt>
      <trkpt lat="48.02986" lon="7.01147">
        <ele>1300.03</ele>
        <time>2017-06-18T15:15:00Z</time>
      </trkpt>
      <trkpt lat="48.03003" lon="7.01159">
        <ele>1299.03</ele>
        <time>2017-06-18T15:15:15Z</time>
      </trkpt>
      <trkpt lat="48.0302" lon="7.01174">
        <ele>1300.03</ele>
        <time>2017-06-18T15:15:30Z</time>
      </trkpt>
      <trkpt lat="48.03039" lon="7.01193">
        <ele>1299.03</ele>
        <time>2017-06-18T15:15:45Z</time>
      </trkpt>
      <trkpt lat="48.03053" lon="7.01215">
        <ele>1298.03</ele>
        <time>2017-06-18T15:16:01Z</time>
      </trkpt>
      <trkpt lat="48.03067" lon="7.01245">
        <ele>1300.03</ele>
        <time>2017-06-18T15:16:17Z</time>
      </trkpt>
      <trkpt lat="48.03077" lon="7.01268">
        <ele>1299.03</ele>
        <time>2017-06-18T15:16:33Z</time>
      </trkpt>
      <trkpt lat="48.03088" lon="7.01293">
        <ele>1300.03</ele>
        <time>2017-06-18T15:16:48Z</time>
      </trkpt>
      <trkpt lat="48.031" lon="7.01315">
        <ele>1305.03</ele>
        <time>2017-06-18T15:17:03Z</time>
      </trkpt>
      <trkpt lat="48.03116" lon="7.01332">
        <ele>1303.03</ele>
        <time>2017-06-18T15:17:19Z</time>
      </trkpt>
      <trkpt lat="48.03119" lon="7.01335">
        <ele>1305.03</ele>
        <time>2017-06-18T15:17:35Z</time>
      </trkpt>
      <trkpt lat="48.03128" lon="7.01348">
        <ele>1301.03</ele>
        <time>2017-06-18T15:17:51Z</time>
      </trkpt>
      <trkpt lat="48.03137" lon="7.01353">
        <ele>1300.03</ele>
        <time>2017-06-18T15:18:06Z</time>
      </trkpt>
      <trkpt lat="48.03148" lon="7.01335">
        <ele>1302.03</ele>
        <time>2017-06-18T15:18:22Z</time>
      </trkpt>
      <trkpt lat="48.03154" lon="7.01326">
        <ele>1305.03</ele>
        <time>2017-06-18T15:18:38Z</time>
      </trkpt>
      <trkpt lat="48.0316" lon="7.01313">
        <ele>1304.03</ele>
        <time>2017-06-18T15:18:54Z</time>
      </trkpt>
      <trkpt lat="48.03165" lon="7.01295">
        <ele>1310.03</ele>
        <time>2017-06-18T15:19:10Z</time>
      </trkpt>
      <trkpt lat="48.03178" lon="7.01269">
        <ele>1305.03</ele>
        <time>2017-06-18T15:19:26Z</time>
      </trkpt>
      <trkpt lat="48.03192" lon="7.01252">
        <ele>1308.03</ele>
        <time>2017-06-18T15:19:41Z</time>
      </trkpt>
      <trkpt lat="48.03205" lon="7.01242">
        <ele>1306.03</ele>
        <time>2017-06-18T15:19:57Z</time>
      </trkpt>
      <trkpt lat="48.03213" lon="7.01244">
        <ele>1306.03</ele>
        <time>2017-06-18T15:20:13Z</time>
      </trkpt>
      <trkpt lat="48.03219" lon="7.0124">
        <ele>1308.03</ele>
        <time>2017-06-18T15:20:29Z</time>
      </trkpt>
      <trkpt lat="48.03225" lon="7.01231">
        <ele>1299.03</ele>
        <time>2017-06-18T15:24:26Z</time>
      </trkpt>
      <trkpt lat="48.03234" lon="7.01211">
        <ele>1301.03</ele>
        <time>2017-06-18T15:24:42Z</time>
      </trkpt>
      <trkpt lat="48.03248" lon="7.01186">
        <ele>1298.03</ele>
        <time>2017-06-18T15:24:58Z</time>
      </trkpt>
      <trkpt lat="48.03261" lon="7.01151">
        <ele>1300.03</ele>
        <time>2017-06-18T15:25:14Z</time>
      </trkpt>
      <trkpt lat="48.03269" lon="7.01122">
        <ele>1300.03</ele>
        <time>2017-06-18T15:25:29Z</time>
      </trkpt>
      <trkpt lat="48.03283" lon="7.011">
        <ele>1299.03</ele>
        <time>2017-06-18T15:25:44Z</time>
      </trkpt>
      <trkpt lat="48.03298" lon="7.01074">
        <ele>1299.03</ele>
        <time>2017-06-18T15:26:00Z</time>
      </trkpt>
      <trkpt lat="48.03313" lon="7.01058">
        <ele>1298.03</ele>
        <time>2017-06-18T15:26:16Z</time>
      </trkpt>
      <trkpt lat="48.03333" lon="7.0104">
        <ele>1294.03</ele>
        <time>2017-06-18T15:26:32Z</time>
      </trkpt>
      <trkpt lat="48.03355" lon="7.01035">
        <ele>1294.03</ele>
        <time>2017-06-18T15:26:48Z</time>
      </trkpt>
      <trkpt lat="48.03378" lon="7.01034">
        <ele>1292.03</ele>
        <time>2017-06-18T15:27:04Z</time>
      </trkpt>
      <trkpt lat="48.03402" lon="7.01039">
        <ele>1290.03</ele>
        <time>2017-06-18T15:27:20Z</time>
      </trkpt>
      <trkpt lat="48.03425" lon="7.01045">
        <ele>1286.03</ele>
        <time>2017-06-18T15:27:36Z</time>
      </trkpt>
      <trkpt lat="48.03442" lon="7.01051">
        <ele>1281.03</ele>
        <time>2017-06-18T15:27:52Z</time>
      </trkpt>
      <trkpt lat="48.0346" lon="7.01074">
        <ele>1277.03</ele>
        <time>2017-06-18T15:28:08Z</time>
      </trkpt>
      <trkpt lat="48.03468" lon="7.01097">
        <ele>1276.03</ele>
        <time>2017-06-18T15:28:23Z</time>
      </trkpt>
    </trkseg>
  </trk>
</gpx>